createdAt,value
2019-02-16T00:48:52.655Z,20.07
2019-02-16T00:51:33.358Z,19.63
2019-02-16T00:56:53.641Z,20.53
2019-02-16T00:59:25.279Z,19.03
2019-02-16T01:01:54.143Z,19.47
2019-02-16T01:07:40.234Z,19.67
2019-02-16T01:10:18.159Z,19.27
2019-02-16T01:12:53.176Z,19.30
2019-02-16T01:18:09.368Z,19.00
2019-02-16T01:20:40.738Z,19.07
2019-02-16T01:23:09.017Z,18.57
2019-02-16T01:29:36.454Z,19.17
2019-02-16T01:55:32.949Z,19.13
2019-02-16T01:58:18.660Z,18.47
2019-02-16T02:00:47.675Z,19.63
2019-02-16T02:03:16.446Z,20.80
2019-02-16T02:05:45.413Z,19.07
2019-02-16T02:08:14.227Z,21.20
2019-02-16T02:10:44.227Z,21.53
2019-02-16T02:13:20.687Z,20.07
2019-02-16T02:18:43.616Z,20.37
2019-02-16T02:21:12.236Z,19.40
2019-02-16T02:23:43.456Z,19.97
2019-02-16T02:26:12.041Z,20.13
2019-02-16T02:28:40.662Z,21.63
2019-02-16T02:31:09.312Z,20.43
2019-02-16T02:33:37.926Z,21.57
2019-02-16T02:36:06.541Z,20.23
2019-02-16T02:38:35.141Z,20.53
2019-02-16T02:41:03.712Z,21.30
2019-02-16T02:43:32.378Z,20.77
2019-02-16T02:46:00.972Z,21.33
2019-02-16T02:48:29.603Z,19.77
2019-02-16T02:50:58.272Z,21.63
2019-02-16T02:53:31.321Z,21.07
2019-02-16T02:55:57.281Z,21.17
2019-02-16T02:58:25.992Z,22.07
2019-02-16T03:00:54.655Z,22.20
2019-02-16T03:03:23.342Z,22.80
2019-02-16T03:05:52.015Z,22.50
2019-02-16T03:11:31.016Z,22.07
2019-02-16T03:13:59.652Z,22.57
2019-02-16T03:16:28.332Z,20.97
2019-02-16T03:18:58.885Z,21.03
2019-02-16T03:21:30.974Z,22.10
2019-02-16T03:23:59.772Z,21.33
2019-02-16T03:26:43.542Z,20.53
2019-02-16T03:29:17.699Z,20.03
2019-02-16T03:32:14.839Z,21.53
2019-02-16T03:34:46.527Z,21.70
2019-02-16T03:37:36.108Z,20.97
2019-02-16T03:40:07.064Z,21.57
2019-02-16T03:42:35.636Z,21.37
2019-02-16T03:45:06.035Z,21.73
2019-02-16T03:47:34.723Z,19.50
2019-02-16T03:50:04.094Z,21.90
2019-02-16T03:52:32.816Z,21.43
2019-02-16T03:55:01.616Z,20.73
2019-02-16T03:57:30.222Z,21.17
2019-02-16T03:59:58.826Z,21.87
2019-02-16T04:02:27.587Z,21.40
2019-02-16T04:04:56.232Z,21.67
2019-02-16T04:07:24.954Z,21.87
2019-02-16T04:09:53.624Z,22.70
2019-02-16T04:12:22.315Z,22.67
2019-02-16T04:14:50.978Z,21.10
2019-02-16T04:17:21.295Z,22.30
2019-02-16T04:19:49.982Z,22.77
2019-02-16T04:22:24.542Z,22.87
2019-02-16T04:24:49.077Z,22.00
2019-02-16T04:27:17.834Z,21.70
2019-02-16T04:29:46.431Z,22.67
2019-02-16T04:32:15.147Z,22.27
2019-02-16T04:34:43.726Z,21.77
2019-02-16T04:37:12.357Z,21.37
2019-02-16T04:39:40.925Z,22.63
2019-02-16T04:42:09.622Z,22.73
2019-02-16T04:44:38.290Z,22.13
2019-02-16T04:47:07.055Z,22.83
2019-02-16T04:49:35.741Z,21.80
2019-02-16T04:52:04.493Z,22.53
2019-02-16T04:54:33.179Z,22.27
2019-02-16T04:57:01.872Z,22.50
2019-02-16T04:59:30.545Z,21.73
2019-02-16T05:01:59.266Z,22.17
2019-02-16T05:04:27.893Z,22.50
2019-02-16T05:06:56.483Z,21.40
2019-02-16T05:09:25.057Z,21.87
2019-02-16T05:11:53.611Z,21.40
2019-02-16T05:14:22.195Z,20.43
2019-02-16T05:16:50.770Z,21.40
2019-02-16T05:19:19.469Z,21.17
2019-02-16T05:21:48.114Z,20.87
2019-02-16T05:24:16.733Z,21.00
2019-02-16T05:26:45.353Z,21.60
2019-02-16T05:29:13.948Z,22.13
2019-02-16T05:31:42.687Z,21.13
2019-02-16T05:34:11.482Z,22.47
2019-02-16T05:36:40.198Z,21.00
2019-02-16T05:39:08.815Z,21.07
2019-02-16T05:41:37.520Z,21.63
2019-02-16T05:44:06.203Z,22.33
2019-02-16T05:46:34.845Z,20.87
2019-02-16T05:49:03.389Z,21.20
2019-02-16T05:51:31.995Z,21.73
2019-02-16T05:54:02.551Z,20.53
2019-02-16T05:56:30.984Z,20.73
2019-02-16T05:58:59.597Z,21.20
2019-02-16T06:01:28.241Z,19.60
2019-02-16T06:03:56.817Z,20.20
2019-02-16T06:06:25.427Z,20.80
2019-02-16T06:08:54.005Z,21.57
2019-02-16T06:11:22.600Z,22.67
2019-02-16T06:13:51.191Z,22.97
2019-02-16T06:16:19.784Z,22.53
2019-02-16T06:18:48.378Z,22.00
2019-02-16T06:21:16.991Z,22.73
2019-02-16T06:23:45.571Z,22.67
2019-02-16T06:26:14.162Z,21.77
2019-02-16T06:28:42.856Z,22.30
2019-02-16T06:31:11.427Z,24.30
2019-02-16T06:33:39.997Z,22.47
2019-02-16T06:36:10.233Z,23.73
2019-02-16T06:38:38.811Z,22.43
2019-02-16T06:41:09.240Z,29.77
2019-02-16T06:43:38.159Z,24.30
2019-02-16T06:46:06.898Z,22.73
2019-02-16T06:48:35.572Z,22.77
2019-02-16T06:51:04.463Z,24.37
2019-02-16T06:53:33.266Z,23.63
2019-02-16T06:56:03.636Z,21.93
2019-02-16T06:58:32.492Z,23.60
2019-02-16T07:01:01.122Z,22.90
2019-02-16T07:03:30.005Z,23.23
2019-02-16T07:05:58.730Z,22.30
2019-02-16T07:08:27.473Z,22.87
2019-02-16T07:10:56.100Z,22.40
2019-02-16T07:13:24.920Z,21.63
2019-02-16T07:16:11.644Z,21.33
2019-02-16T07:18:42.624Z,21.40
2019-02-16T07:21:11.381Z,21.97
2019-02-16T07:23:40.441Z,23.03
2019-02-16T07:26:09.239Z,22.83
2019-02-16T07:28:37.982Z,23.07
2019-02-16T07:31:06.724Z,21.33
2019-02-16T07:33:35.389Z,22.27
2019-02-16T07:36:03.982Z,29.57
2019-02-16T07:38:32.569Z,24.17
2019-02-16T07:41:28.103Z,22.50
2019-02-16T07:43:58.334Z,20.90
2019-02-16T07:46:28.616Z,20.67
2019-02-16T07:48:58.938Z,20.53
2019-02-16T07:51:41.273Z,21.40
2019-02-16T07:54:14.127Z,19.83
2019-02-16T07:56:44.323Z,21.23
2019-02-16T07:59:30.968Z,21.60
2019-02-16T08:02:01.199Z,21.43
2019-02-16T08:04:31.417Z,22.73
2019-02-16T08:07:01.887Z,22.53
2019-02-16T08:09:36.756Z,22.30
2019-02-16T08:12:12.853Z,22.77
2019-02-16T08:14:51.837Z,23.37
2019-02-16T08:17:28.606Z,23.37
2019-02-16T08:20:16.570Z,22.50
2019-02-16T08:22:49.420Z,21.50
2019-02-16T08:25:25.347Z,20.70
2019-02-16T08:28:01.567Z,21.87
2019-02-16T08:30:37.652Z,22.70
2019-02-16T08:33:10.829Z,22.33
2019-02-16T08:35:46.710Z,22.13
2019-02-16T08:38:33.434Z,22.13
2019-02-16T08:41:18.679Z,22.87
2019-02-16T08:43:54.783Z,22.93
2019-02-16T08:46:41.381Z,24.00
2019-02-16T08:49:17.516Z,23.63
2019-02-16T08:52:06.060Z,21.13
2019-02-16T08:57:56.364Z,23.33
2019-02-16T09:00:41.831Z,22.40
2019-02-16T09:03:20.863Z,23.57
2019-02-16T09:06:07.879Z,24.27
2019-02-16T09:08:40.818Z,25.80
2019-02-16T09:11:11.141Z,24.87
2019-02-16T09:13:47.090Z,24.13
2019-02-16T09:16:18.510Z,23.73
2019-02-16T09:19:03.950Z,23.20
2019-02-16T09:21:34.260Z,23.83
2019-02-16T09:24:23.098Z,24.77
2019-02-16T09:26:55.994Z,24.20
2019-02-16T09:29:38.296Z,26.60
2019-02-16T09:32:14.455Z,26.13
2019-02-16T09:34:44.767Z,25.23
2019-02-16T09:37:14.990Z,26.33
2019-02-16T09:40:03.622Z,27.13
2019-02-16T09:42:37.288Z,25.87
2019-02-16T09:45:09.241Z,24.10
2019-02-16T09:47:39.478Z,24.53
2019-02-16T09:50:09.914Z,24.97
2019-02-16T09:52:46.379Z,24.13
2019-02-16T09:55:25.762Z,24.50
2019-02-16T09:57:56.087Z,23.77
2019-02-16T10:00:29.184Z,24.43
2019-02-16T10:02:59.434Z,23.93
2019-02-16T10:05:38.784Z,23.30
2019-02-16T10:08:27.440Z,23.87
2019-02-16T10:11:09.716Z,24.77
2019-02-16T10:13:51.775Z,24.53
2019-02-16T10:16:22.076Z,24.17
2019-02-16T10:18:52.628Z,22.97
2019-02-16T10:21:28.998Z,22.97
2019-02-16T10:24:17.348Z,24.50
2019-02-16T10:26:51.809Z,25.93
2019-02-16T10:29:26.472Z,25.60
2019-02-16T10:32:15.745Z,26.73
2019-02-16T10:34:48.618Z,25.70
2019-02-16T10:37:27.900Z,25.37
2019-02-16T10:40:00.927Z,25.30
2019-02-16T10:42:31.364Z,26.07
2019-02-16T10:45:16.984Z,25.37
2019-02-16T10:50:34.128Z,25.77
2019-02-16T10:53:20.952Z,24.60
2019-02-16T10:55:57.098Z,25.57
2019-02-16T10:58:39.942Z,23.33
2019-02-16T11:01:15.932Z,24.53
2019-02-16T11:03:46.210Z,23.47
2019-02-16T11:06:31.694Z,25.00
2019-02-16T11:09:04.794Z,25.67
2019-02-16T11:11:51.230Z,24.40
2019-02-16T11:14:27.411Z,23.27
2019-02-16T11:16:57.621Z,23.20
2019-02-16T11:19:30.668Z,23.37
2019-02-16T11:22:01.110Z,23.70
2019-02-16T11:24:47.728Z,23.87
2019-02-16T11:27:18.053Z,23.00
2019-02-16T11:30:06.801Z,23.10
2019-02-16T11:32:42.736Z,21.23
2019-02-16T11:35:21.769Z,24.40
2019-02-16T11:38:07.116Z,23.23
2019-02-16T11:40:43.324Z,22.63
2019-02-16T11:43:16.390Z,23.80
2019-02-16T11:46:04.864Z,23.07
2019-02-16T11:48:37.974Z,21.77
2019-02-16T11:54:13.619Z,22.63
2019-02-16T11:56:46.562Z,22.33
2019-02-16T11:59:19.668Z,21.67
2019-02-16T12:01:55.615Z,22.23
2019-02-16T12:04:25.848Z,22.57
2019-02-16T12:07:08.165Z,23.00
2019-02-16T12:09:40.822Z,22.10
2019-02-16T12:12:17.060Z,22.10
2019-02-16T12:15:03.934Z,23.20
2019-02-16T12:17:49.255Z,23.20
2019-02-16T12:20:33.406Z,23.33
2019-02-16T12:23:09.254Z,21.83
2019-02-16T12:25:42.272Z,21.87
2019-02-16T12:28:28.505Z,21.93
2019-02-16T12:31:10.492Z,21.67
2019-02-16T12:33:57.162Z,20.60
2019-02-16T12:36:27.467Z,22.00
2019-02-16T12:39:09.997Z,21.57
2019-02-16T12:41:49.386Z,21.17
2019-02-16T12:44:34.580Z,20.70
2019-02-16T12:47:04.865Z,21.00
2019-02-16T12:49:44.032Z,22.97
2019-02-16T12:52:23.501Z,24.60
2019-02-16T12:54:59.900Z,22.53
2019-02-16T12:57:39.384Z,22.90
2019-02-16T13:00:17.773Z,23.97
2019-02-16T13:02:56.697Z,22.47
2019-02-16T13:05:35.746Z,23.23
2019-02-16T13:08:10.107Z,22.70
2019-02-16T13:10:40.316Z,22.93
2019-02-16T13:13:26.828Z,22.93
2019-02-16T13:16:15.187Z,22.83
2019-02-16T13:19:01.798Z,22.97
2019-02-16T13:21:32.075Z,22.57
2019-02-16T13:24:11.228Z,22.17
2019-02-16T13:26:47.364Z,23.57
2019-02-16T13:29:20.414Z,22.20
2019-02-16T13:31:56.714Z,23.10
2019-02-16T13:34:44.067Z,23.37
2019-02-16T13:37:32.216Z,24.00
2019-02-16T13:40:05.144Z,22.20
2019-02-16T13:42:41.139Z,23.03
2019-02-16T13:45:27.046Z,22.10
2019-02-16T13:47:57.317Z,22.53
2019-02-16T13:50:33.437Z,23.30
2019-02-16T13:53:06.292Z,22.73
2019-02-16T13:55:45.588Z,23.53
2019-02-16T13:58:21.744Z,22.73
2019-02-16T14:00:54.816Z,23.03
2019-02-16T14:06:13.104Z,23.53
2019-02-16T14:08:43.312Z,23.13
2019-02-16T14:11:19.744Z,23.43
2019-02-16T14:13:52.805Z,23.00
2019-02-16T14:16:35.092Z,23.43
2019-02-16T14:19:03.741Z,24.27
2019-02-16T14:21:32.300Z,22.33
2019-02-16T14:24:00.886Z,21.63
2019-02-16T14:26:29.497Z,22.13
2019-02-16T14:28:58.141Z,21.70
2019-02-16T14:31:28.709Z,21.47
2019-02-16T14:33:57.303Z,21.47
2019-02-16T14:36:25.908Z,19.53
2019-02-16T14:38:56.140Z,21.97
2019-02-16T14:41:24.713Z,21.67
2019-02-16T14:43:53.369Z,21.43
2019-02-16T14:46:22.093Z,21.70
2019-02-16T14:48:50.652Z,21.07
2019-02-16T14:51:19.383Z,21.23
2019-02-16T14:53:52.188Z,20.80
2019-02-16T14:56:23.626Z,20.83
2019-02-16T14:58:55.134Z,20.87
2019-02-16T15:01:23.724Z,22.13
2019-02-16T15:03:52.273Z,21.93
2019-02-16T15:06:20.999Z,21.63
2019-02-16T15:08:52.528Z,21.70
2019-02-16T15:11:21.139Z,21.53
2019-02-16T15:13:49.865Z,22.67
2019-02-16T15:16:18.544Z,22.43
2019-02-16T15:18:49.621Z,21.03
2019-02-16T15:21:18.105Z,21.03
2019-02-16T15:23:46.754Z,21.60
2019-02-16T15:26:15.360Z,21.50
2019-02-16T15:28:43.937Z,20.93
2019-02-16T15:31:12.676Z,20.13
2019-02-16T15:33:41.368Z,20.70
2019-02-16T15:36:12.969Z,20.77
2019-02-16T15:38:43.287Z,20.30
2019-02-16T15:41:11.903Z,19.73
2019-02-16T15:43:43.715Z,21.00
2019-02-16T15:46:15.198Z,19.67
2019-02-16T15:48:46.315Z,19.90
2019-02-16T15:51:15.097Z,19.53
2019-02-16T15:53:43.727Z,18.93
2019-02-16T15:56:12.398Z,19.57
2019-02-16T15:58:41.007Z,18.90
2019-02-16T16:01:09.841Z,18.73
2019-02-16T16:03:38.669Z,19.07
2019-02-16T16:06:07.453Z,18.37
2019-02-16T16:08:46.887Z,19.07
2019-02-16T16:11:35.307Z,18.13
2019-02-16T16:14:06.628Z,19.13
2019-02-16T16:16:39.861Z,19.63
2019-02-16T16:19:18.774Z,19.47
2019-02-16T16:21:56.161Z,20.57
2019-02-16T16:24:32.633Z,20.73
2019-02-16T16:27:05.594Z,19.43
2019-02-16T16:29:41.503Z,19.70
2019-02-16T16:32:14.607Z,20.10
2019-02-16T16:34:44.843Z,20.13
2019-02-16T16:37:15.184Z,20.73
2019-02-16T16:39:45.396Z,20.43
2019-02-16T16:42:24.776Z,20.97
2019-02-16T16:45:11.320Z,21.20
2019-02-16T16:47:47.622Z,22.17
2019-02-16T16:50:34.167Z,22.43
2019-02-16T16:53:04.470Z,21.40
2019-02-16T16:55:37.552Z,21.27
2019-02-16T16:58:23.161Z,22.27
2019-02-16T17:00:59.107Z,20.57
2019-02-16T17:03:42.955Z,23.73
2019-02-16T17:06:13.220Z,22.37
2019-02-16T17:08:48.947Z,22.50
2019-02-16T17:11:24.782Z,22.00
2019-02-16T17:14:07.286Z,23.53
2019-02-16T17:16:37.559Z,24.10
2019-02-16T17:19:07.977Z,23.10
2019-02-16T17:21:41.182Z,23.43
2019-02-16T17:24:11.423Z,25.20
2019-02-16T17:26:56.780Z,24.20
2019-02-16T17:29:41.989Z,24.77
2019-02-16T17:32:21.127Z,23.97
2019-02-16T17:38:39.167Z,23.70
2019-02-16T17:41:21.353Z,24.57
2019-02-16T17:47:00.125Z,25.60
2019-02-16T17:49:40.898Z,23.57
2019-02-16T17:56:05.415Z,29.20
2019-02-16T17:58:43.058Z,28.97
2019-02-16T18:01:25.343Z,26.53
2019-02-16T18:04:04.678Z,27.10
2019-02-16T18:06:44.282Z,26.83
2019-02-16T18:09:34.157Z,28.77
2019-02-16T18:12:16.707Z,26.90
2019-02-16T18:15:12.524Z,27.93
2019-02-16T18:17:46.072Z,26.33
2019-02-16T18:20:31.885Z,26.97
2019-02-16T18:23:02.257Z,27.40
2019-02-16T18:25:38.475Z,26.50
2019-02-16T18:28:14.378Z,27.27
2019-02-16T18:30:53.975Z,26.57
2019-02-16T18:33:30.277Z,27.93
2019-02-16T18:36:06.584Z,27.67
2019-02-16T18:38:49.192Z,27.37
2019-02-16T18:41:33.606Z,28.43
2019-02-16T18:44:22.248Z,29.00
2019-02-16T18:47:04.353Z,26.93
2019-02-16T18:50:16.686Z,28.90
2019-02-16T18:59:41.265Z,27.10
2019-02-16T19:02:43.454Z,25.97
2019-02-16T19:05:41.250Z,27.67
2019-02-16T19:08:53.095Z,27.40
2019-02-16T19:17:26.309Z,27.97
2019-02-16T19:20:07.385Z,28.07
2019-02-16T19:33:20.511Z,28.67
2019-02-16T19:35:57.227Z,27.93
2019-02-16T19:38:39.876Z,28.93
2019-02-16T19:41:16.396Z,28.77
2019-02-16T19:44:14.139Z,28.93
2019-02-16T19:46:57.562Z,27.90
2019-02-16T19:49:44.659Z,28.47
2019-02-16T19:52:21.093Z,28.87
2019-02-16T19:54:54.335Z,28.30
2019-02-16T19:57:36.619Z,27.90
2019-02-16T20:00:24.427Z,28.80
2019-02-16T20:06:00.481Z,29.10
2019-02-16T20:08:33.733Z,29.10
2019-02-16T20:11:22.476Z,28.97
2019-02-16T20:14:13.401Z,28.10
2019-02-16T20:17:01.669Z,26.90
2019-02-16T20:19:49.094Z,27.13
2019-02-16T20:22:36.557Z,28.73
2019-02-16T20:25:25.005Z,28.57
2019-02-16T20:27:55.223Z,28.43
2019-02-16T20:30:46.388Z,26.93
2019-02-16T20:33:35.132Z,29.07
2019-02-16T20:36:05.646Z,28.93
2019-02-16T20:39:02.139Z,29.43
2019-02-16T20:41:48.745Z,32.60
2019-02-16T20:47:14.763Z,32.70
2019-02-16T20:50:01.399Z,31.57
2019-02-16T20:52:37.913Z,30.17
2019-02-16T20:55:14.243Z,31.40
2019-02-16T20:58:01.087Z,30.70
2019-02-16T21:00:31.599Z,32.17
2019-02-16T21:03:07.641Z,32.87
2019-02-16T21:05:40.635Z,33.60
2019-02-16T21:08:29.027Z,34.47
2019-02-16T21:11:15.987Z,34.37
2019-02-16T21:13:58.549Z,32.63
2019-02-16T21:16:36.184Z,31.87
2019-02-16T21:19:19.941Z,32.33
2019-02-16T21:22:08.737Z,30.83
2019-02-16T21:24:47.608Z,30.27
2019-02-16T21:27:18.123Z,31.03
2019-02-16T21:29:54.246Z,30.27
